createdAt,value
2017-02-08T00:00:16.364Z,28
2017-02-08T00:01:16.508Z,28
2017-02-08T00:02:15.784Z,28
2017-02-08T00:03:16.531Z,28
2017-02-08T00:04:15.503Z,28
2017-02-08T00:05:15.716Z,28
2017-02-08T00:06:16.775Z,28
2017-02-08T00:07:15.660Z,28
2017-02-08T00:08:16.134Z,28
2017-02-08T00:09:15.943Z,28
2017-02-08T00:10:16.886Z,28
2017-02-08T00:11:16.931Z,28
2017-02-08T00:12:17.013Z,28
2017-02-08T00:13:17.131Z,28
2017-02-08T00:14:17.442Z,28
2017-02-08T00:15:17.156Z,28
2017-02-08T00:16:16.166Z,28
2017-02-08T00:17:17.260Z,28
2017-02-08T00:18:16.164Z,28
2017-02-08T00:19:17.358Z,28
2017-02-08T00:20:16.608Z,28
2017-02-08T00:21:17.377Z,28
2017-02-08T00:22:17.450Z,28
2017-02-08T00:23:17.530Z,28
2017-02-08T00:24:17.673Z,28
2017-02-08T00:25:17.717Z,28
2017-02-08T00:26:18.039Z,28
2017-02-08T00:27:16.817Z,28
2017-02-08T00:28:17.885Z,28
2017-02-08T00:29:16.888Z,28
2017-02-08T00:30:17.930Z,28
2017-02-08T00:31:18.027Z,28
2017-02-08T00:32:18.327Z,28
2017-02-08T00:33:17.044Z,28
2017-02-08T00:34:17.175Z,28
2017-02-08T00:35:18.197Z,28
2017-02-08T00:36:18.286Z,28
2017-02-08T00:37:17.252Z,28
2017-02-08T00:38:18.620Z,28
2017-02-08T00:39:17.388Z,28
2017-02-08T00:40:17.363Z,28
2017-02-08T00:41:18.561Z,28
2017-02-08T00:42:17.546Z,28
2017-02-08T00:43:17.554Z,28
2017-02-08T00:44:18.961Z,28
2017-02-08T00:45:18.293Z,28
2017-02-08T00:46:17.778Z,28
2017-02-08T00:47:17.797Z,28
2017-02-08T00:48:17.866Z,28
2017-02-08T00:49:18.861Z,28
2017-02-08T00:50:19.311Z,28
2017-02-08T00:51:17.886Z,28
2017-02-08T00:52:19.061Z,28
2017-02-08T00:53:19.036Z,28
2017-02-08T00:54:19.197Z,28
2017-02-08T00:55:19.188Z,28
2017-02-08T00:56:19.510Z,28
2017-02-08T00:57:18.332Z,28
2017-02-08T00:58:18.360Z,28
2017-02-08T00:59:18.476Z,28
2017-02-08T01:00:18.613Z,28
2017-02-08T01:01:18.545Z,28
2017-02-08T01:02:19.844Z,28
2017-02-08T01:03:18.611Z,28
2017-02-08T01:04:18.547Z,28
2017-02-08T01:05:18.638Z,28
2017-02-08T01:06:19.723Z,28
2017-02-08T01:07:18.732Z,28
2017-02-08T01:08:20.059Z,28
2017-02-08T01:09:19.903Z,28
2017-02-08T01:10:19.941Z,28
2017-02-08T01:11:18.817Z,28
2017-02-08T01:12:20.059Z,28
2017-02-08T01:13:19.014Z,28
2017-02-08T01:14:20.364Z,28
2017-02-08T01:15:19.083Z,28
2017-02-08T01:16:19.179Z,28
2017-02-08T01:17:19.217Z,28
2017-02-08T01:18:20.212Z,28
2017-02-08T01:19:19.299Z,28
2017-02-08T01:20:19.549Z,28
2017-02-08T01:21:19.371Z,28
2017-02-08T01:22:19.455Z,28
2017-02-08T01:23:20.644Z,28
2017-02-08T01:24:19.592Z,28
2017-02-08T01:25:20.721Z,28
2017-02-08T01:26:21.026Z,28
2017-02-08T01:27:20.860Z,27.9
2017-02-08T01:28:20.908Z,28
2017-02-08T01:29:20.987Z,27.9
2017-02-08T01:30:19.880Z,28
2017-02-08T01:31:21.016Z,27.9
2017-02-08T01:32:21.384Z,28
2017-02-08T01:33:21.109Z,27.9
2017-02-08T01:34:21.192Z,28
2017-02-08T01:35:21.145Z,28
2017-02-08T01:36:21.312Z,27.9
2017-02-08T01:37:20.231Z,27.9
2017-02-08T01:38:21.699Z,27.9
2017-02-08T01:39:21.428Z,27.9
2017-02-08T01:40:20.451Z,27.9
2017-02-08T01:41:21.611Z,28
2017-02-08T01:42:20.650Z,27.9
2017-02-08T01:43:21.804Z,27.9
2017-02-08T01:44:22.672Z,27.9
2017-02-08T01:45:22.399Z,27.9
2017-02-08T01:46:20.841Z,27.9
2017-02-08T01:47:22.030Z,27.9
2017-02-08T01:48:21.007Z,27.9
2017-02-08T01:49:22.014Z,27.9
2017-02-08T01:50:22.448Z,27.9
2017-02-08T01:51:21.152Z,27.9
2017-02-08T01:52:22.166Z,27.9
2017-02-08T01:53:21.190Z,27.9
2017-02-08T01:54:21.279Z,27.9
2017-02-08T01:55:22.335Z,27.9
2017-02-08T01:56:21.494Z,27.9
2017-02-08T01:57:21.264Z,27.9
2017-02-08T01:58:21.430Z,27.9
2017-02-08T01:59:21.365Z,27.9
2017-02-08T02:00:21.514Z,27.9
2017-02-08T02:01:22.578Z,27.9
2017-02-08T02:02:21.862Z,27.9
2017-02-08T02:03:21.612Z,27.9
2017-02-08T02:04:22.677Z,27.9
2017-02-08T02:05:21.781Z,27.9
2017-02-08T02:06:22.837Z,27.9
2017-02-08T02:07:21.823Z,27.9
2017-02-08T02:08:22.295Z,27.9
2017-02-08T02:09:22.036Z,27.9
2017-02-08T02:10:22.088Z,27.9
2017-02-08T02:11:22.162Z,27.9
2017-02-08T02:12:23.186Z,27.9
2017-02-08T02:13:23.267Z,27.9
2017-02-08T02:14:22.559Z,27.9
2017-02-08T02:15:23.289Z,27.9
2017-02-08T02:16:22.236Z,27.9
2017-02-08T02:17:22.396Z,27.9
2017-02-08T02:18:22.443Z,27.9
2017-02-08T02:19:23.474Z,27.9
2017-02-08T02:20:23.774Z,27.9
2017-02-08T02:21:23.636Z,27.9
2017-02-08T02:22:22.695Z,27.9
2017-02-08T02:23:22.725Z,27.9
2017-02-08T02:24:23.756Z,27.9
2017-02-08T02:25:22.900Z,27.9
2017-02-08T02:26:23.279Z,27.9
2017-02-08T02:27:24.027Z,27.9
2017-02-08T02:28:23.181Z,27.9
2017-02-08T02:29:24.134Z,27.9
2017-02-08T02:30:23.050Z,27.9
2017-02-08T02:31:23.133Z,27.9
2017-02-08T02:32:23.411Z,27.9
2017-02-08T02:33:23.154Z,27.9
2017-02-08T02:34:24.246Z,27.9
2017-02-08T02:35:24.426Z,27.9
2017-02-08T02:36:23.363Z,27.9
2017-02-08T02:37:23.465Z,27.9
2017-02-08T02:38:23.849Z,27.9
2017-02-08T02:39:23.599Z,27.9
2017-02-08T02:40:24.692Z,27.9
2017-02-08T02:41:24.764Z,27.9
2017-02-08T02:42:23.700Z,27.9
2017-02-08T02:43:24.853Z,27.9
2017-02-08T02:44:24.032Z,27.9
2017-02-08T02:45:24.562Z,27.9
2017-02-08T02:46:24.033Z,27.9
2017-02-08T02:47:24.048Z,27.9
2017-02-08T02:48:24.125Z,27.9
2017-02-08T02:49:25.136Z,27.9
2017-02-08T02:50:24.466Z,27.9
2017-02-08T02:51:25.276Z,27.9
2017-02-08T02:52:24.190Z,27.9
2017-02-08T02:53:24.286Z,27.9
2017-02-08T02:54:25.343Z,27.9
2017-02-08T02:55:25.428Z,27.9
2017-02-08T02:56:24.757Z,27.9
2017-02-08T02:57:24.525Z,27.9
2017-02-08T02:58:25.718Z,27.9
2017-02-08T02:59:25.695Z,27.9
2017-02-08T03:00:25.774Z,27.9
2017-02-08T03:01:24.775Z,27.9
2017-02-08T03:02:26.034Z,27.9
2017-02-08T03:03:25.861Z,27.9
2017-02-08T03:04:24.757Z,27.9
2017-02-08T03:05:24.872Z,27.9
2017-02-08T03:06:24.970Z,27.9
2017-02-08T03:07:26.010Z,27.9
2017-02-08T03:08:26.407Z,27.9
2017-02-08T03:09:26.158Z,27.9
2017-02-08T03:10:26.143Z,27.9
2017-02-08T03:11:25.169Z,27.9
2017-02-08T03:12:26.216Z,27.9
2017-02-08T03:13:25.196Z,27.9
2017-02-08T03:14:26.642Z,27.9
2017-02-08T03:15:25.384Z,27.9
2017-02-08T03:16:26.534Z,27.9
2017-02-08T03:17:26.540Z,27.9
2017-02-08T03:18:25.496Z,27.9
2017-02-08T03:19:25.593Z,27.9
2017-02-08T03:20:26.987Z,27.9
2017-02-08T03:21:26.719Z,27.9
2017-02-08T03:22:25.710Z,27.9
2017-02-08T03:23:26.898Z,27.9
2017-02-08T03:24:26.883Z,27.9
2017-02-08T03:25:27.081Z,27.9
2017-02-08T03:26:26.061Z,27.9
2017-02-08T03:27:26.151Z,27.9
2017-02-08T03:28:27.231Z,27.9
2017-02-08T03:29:27.271Z,27.9
2017-02-08T03:30:27.282Z,27.9
2017-02-08T03:31:27.350Z,27.9
2017-02-08T03:32:27.450Z,27.9
2017-02-08T03:33:26.423Z,27.9
2017-02-08T03:34:26.494Z,27.9
2017-02-08T03:35:27.462Z,27.9
2017-02-08T03:36:26.545Z,27.9
2017-02-08T03:37:26.490Z,27.9
2017-02-08T03:38:27.660Z,27.9
2017-02-08T03:39:27.615Z,27.9
2017-02-08T03:40:26.614Z,27.9
2017-02-08T03:41:27.745Z,27.9
2017-02-08T03:42:27.779Z,27.9
2017-02-08T03:43:27.771Z,27.9
2017-02-08T03:44:27.922Z,27.8
2017-02-08T03:45:28.024Z,27.9
2017-02-08T03:46:28.092Z,27.9
2017-02-08T03:47:28.041Z,27.9
2017-02-08T03:48:26.963Z,27.9
2017-02-08T03:49:28.725Z,27.9
2017-02-08T03:50:28.156Z,27.9
2017-02-08T03:51:27.242Z,27.9
2017-02-08T03:52:28.304Z,27.9
2017-02-08T03:53:28.389Z,27.9
2017-02-08T03:54:27.344Z,27.9
2017-02-08T03:55:28.368Z,27.9
2017-02-08T03:56:28.501Z,27.9
2017-02-08T03:57:28.517Z,27.9
2017-02-08T03:58:28.507Z,27.9
2017-02-08T03:59:28.565Z,27.9
2017-02-08T04:00:28.619Z,27.8
2017-02-08T04:01:27.592Z,27.8
2017-02-08T04:02:28.661Z,27.8
2017-02-08T04:03:27.709Z,27.8
2017-02-08T04:04:27.753Z,27.8
2017-02-08T04:05:27.949Z,27.8
2017-02-08T04:06:27.944Z,27.8
2017-02-08T04:07:28.032Z,27.8
2017-02-08T04:08:28.141Z,27.8
2017-02-08T04:09:29.147Z,27.8
2017-02-08T04:10:29.271Z,27.8
2017-02-08T04:11:28.273Z,27.8
2017-02-08T04:12:29.407Z,27.8
2017-02-08T04:13:29.585Z,27.8
2017-02-08T04:14:28.659Z,27.8
2017-02-08T04:15:29.785Z,27.8
2017-02-08T04:16:29.812Z,27.8
2017-02-08T04:17:29.833Z,27.8
2017-02-08T04:18:28.788Z,27.8
2017-02-08T04:19:29.814Z,27.8
2017-02-08T04:20:29.903Z,27.8
2017-02-08T04:21:28.764Z,27.8
2017-02-08T04:22:28.895Z,27.8
2017-02-08T04:23:29.980Z,27.8
2017-02-08T04:24:30.038Z,27.8
2017-02-08T04:25:28.991Z,27.8
2017-02-08T04:26:30.234Z,27.8
2017-02-08T04:27:30.204Z,27.8
2017-02-08T04:28:30.333Z,27.8
2017-02-08T04:29:29.234Z,27.8
2017-02-08T04:30:30.405Z,27.8
2017-02-08T04:31:30.447Z,27.8
2017-02-08T04:32:30.572Z,27.8
2017-02-08T04:33:30.512Z,27.8
2017-02-08T04:34:29.550Z,27.8
2017-02-08T04:35:30.523Z,27.8
2017-02-08T04:36:30.621Z,27.8
2017-02-08T04:37:29.611Z,27.8
2017-02-08T04:38:29.703Z,27.8
2017-02-08T04:39:30.843Z,27.8
2017-02-08T04:40:30.985Z,27.8
2017-02-08T04:41:29.863Z,27.8
2017-02-08T04:42:31.009Z,27.8
2017-02-08T04:43:31.136Z,27.8
2017-02-08T04:44:30.075Z,27.9
2017-02-08T04:45:31.312Z,28
2017-02-08T04:46:30.880Z,28
2017-02-08T04:47:30.403Z,28.1
2017-02-08T04:48:31.501Z,28.2
2017-02-08T04:49:31.597Z,28.4
2017-02-08T04:50:31.513Z,28.7
2017-02-08T04:51:31.553Z,28.9
2017-02-08T04:52:30.555Z,29.2
2017-02-08T04:53:30.631Z,29.5
2017-02-08T04:54:31.631Z,29.7
2017-02-08T04:55:31.697Z,29.9
2017-02-08T04:56:31.748Z,30
2017-02-08T04:57:30.712Z,30.1
2017-02-08T04:58:31.806Z,30.3
2017-02-08T04:59:31.923Z,30.3
2017-02-08T05:00:30.909Z,30.4
2017-02-08T05:01:30.964Z,30.5
2017-02-08T05:02:31.038Z,30.5
2017-02-08T05:03:30.910Z,30.6
2017-02-08T05:04:31.994Z,30.6
2017-02-08T05:05:32.135Z,30.6
2017-02-08T05:06:31.242Z,30.6
2017-02-08T05:07:31.012Z,30.7
2017-02-08T05:08:32.194Z,30.7
2017-02-08T05:09:31.128Z,30.7
2017-02-08T05:10:32.342Z,30.7
2017-02-08T05:11:32.452Z,30.7
2017-02-08T05:12:32.443Z,30.7
2017-02-08T05:13:32.513Z,30.7
2017-02-08T05:14:32.747Z,30.7
2017-02-08T05:15:32.652Z,30.7
2017-02-08T05:16:31.605Z,30.7
2017-02-08T05:17:31.579Z,30.7
2017-02-08T05:18:32.833Z,30.7
2017-02-08T05:19:31.798Z,30.7
2017-02-08T05:20:31.769Z,30.7
2017-02-08T05:21:31.767Z,30.7
2017-02-08T05:22:32.978Z,30.7
2017-02-08T05:23:31.936Z,30.7
2017-02-08T05:24:33.179Z,30.7
2017-02-08T05:25:31.975Z,30.7
2017-02-08T05:26:33.220Z,30.7
2017-02-08T05:27:33.238Z,30.7
2017-02-08T05:28:33.354Z,30.6
2017-02-08T05:29:33.361Z,30.6
2017-02-08T05:30:32.378Z,30.6
2017-02-08T05:31:33.467Z,30.6
2017-02-08T05:32:33.512Z,30.6
2017-02-08T05:33:33.554Z,30.6
2017-02-08T05:34:32.625Z,30.6
2017-02-08T05:35:33.655Z,30.5
2017-02-08T05:36:33.800Z,30.5
2017-02-08T05:37:32.750Z,30.5
2017-02-08T05:38:32.837Z,30.5
2017-02-08T05:39:32.782Z,30.5
2017-02-08T05:40:33.919Z,30.5
2017-02-08T05:41:32.885Z,30.5
2017-02-08T05:42:34.006Z,30.4
2017-02-08T05:43:34.154Z,30.4
2017-02-08T05:44:33.079Z,30.4
2017-02-08T05:45:34.289Z,30.4
2017-02-08T05:46:33.377Z,30.4
2017-02-08T05:47:33.266Z,30.4
2017-02-08T05:48:33.361Z,30.4
2017-02-08T05:49:34.373Z,30.3
2017-02-08T05:50:34.485Z,30.3
2017-02-08T05:51:33.460Z,30.3
2017-02-08T05:52:33.354Z,30.3
2017-02-08T05:53:33.456Z,30.3
2017-02-08T05:54:34.600Z,30.2
2017-02-08T05:55:33.464Z,30.2
2017-02-08T05:56:34.583Z,30.2
2017-02-08T05:57:33.597Z,30.2
2017-02-08T05:58:34.774Z,30.2
2017-02-08T05:59:34.792Z,30.2
2017-02-08T06:00:34.797Z,30.1
2017-02-08T06:01:34.881Z,30.1
2017-02-08T06:02:33.786Z,30.1
2017-02-08T06:03:33.825Z,30.1
2017-02-08T06:04:33.858Z,30.1
2017-02-08T06:05:35.042Z,30.1
2017-02-08T06:06:34.072Z,30.1
2017-02-08T06:07:34.052Z,30.1
2017-02-08T06:08:34.131Z,30.1
2017-02-08T06:09:35.236Z,30
2017-02-08T06:10:34.195Z,30
2017-02-08T06:11:34.265Z,30
2017-02-08T06:12:34.241Z,30
2017-02-08T06:13:35.327Z,30
2017-02-08T06:14:35.437Z,30
2017-02-08T06:15:35.473Z,30
2017-02-08T06:16:35.479Z,29.9
2017-02-08T06:17:35.548Z,29.9
2017-02-08T06:18:34.480Z,29.9
2017-02-08T06:19:34.606Z,29.9
2017-02-08T06:20:34.532Z,29.9
2017-02-08T06:21:35.695Z,29.9
2017-02-08T06:22:34.697Z,29.9
2017-02-08T06:23:34.623Z,29.9
2017-02-08T06:24:34.644Z,29.9
2017-02-08T06:25:35.865Z,29.8
2017-02-08T06:26:34.799Z,29.8
2017-02-08T06:27:35.831Z,29.8
2017-02-08T06:28:36.807Z,29.8
2017-02-08T06:29:34.845Z,29.8
2017-02-08T06:30:36.360Z,29.8
2017-02-08T06:31:36.033Z,29.8
2017-02-08T06:32:35.023Z,29.7
2017-02-08T06:33:36.209Z,29.7
2017-02-08T06:34:36.179Z,29.7
2017-02-08T06:35:35.198Z,29.7
2017-02-08T06:36:35.391Z,29.7
2017-02-08T06:37:36.467Z,29.7
2017-02-08T06:38:36.506Z,29.7
2017-02-08T06:39:36.520Z,29.7
2017-02-08T06:40:35.517Z,29.7
2017-02-08T06:41:35.603Z,29.7
2017-02-08T06:42:35.719Z,29.7
2017-02-08T06:43:36.856Z,29.6
2017-02-08T06:44:35.854Z,29.6
2017-02-08T06:45:36.867Z,29.6
2017-02-08T06:46:37.011Z,29.6
2017-02-08T06:47:37.029Z,29.6
2017-02-08T06:48:36.100Z,29.6
2017-02-08T06:49:36.077Z,29.6
2017-02-08T06:50:37.269Z,29.6
2017-02-08T06:51:36.214Z,29.6
2017-02-08T06:52:36.243Z,29.6
2017-02-08T06:53:36.374Z,29.5
2017-02-08T06:54:36.327Z,29.5
2017-02-08T06:55:37.509Z,29.5
2017-02-08T06:56:36.539Z,29.5
2017-02-08T06:57:41.192Z,29.5
2017-02-08T06:58:36.737Z,29.5
2017-02-08T06:59:38.558Z,29.5
2017-02-08T07:00:37.781Z,29.5
2017-02-08T07:01:36.705Z,29.5
2017-02-08T07:02:36.772Z,29.5
2017-02-08T07:03:36.685Z,29.5
2017-02-08T07:04:36.795Z,29.4
2017-02-08T07:05:38.056Z,29.4
2017-02-08T07:06:37.977Z,29.4
2017-02-08T07:07:37.109Z,29.4
2017-02-08T07:08:36.999Z,29.4
2017-02-08T07:09:37.159Z,29.4
2017-02-08T07:10:37.143Z,29.4
2017-02-08T07:11:37.082Z,29.4
2017-02-08T07:12:37.260Z,29.4
2017-02-08T07:13:37.325Z,29.4
2017-02-08T07:14:37.319Z,29.4
2017-02-08T07:15:38.488Z,29.4
2017-02-08T07:16:38.553Z,29.4
2017-02-08T07:17:38.582Z,29.3
2017-02-08T07:18:37.605Z,29.3
2017-02-08T07:19:38.685Z,29.3
2017-02-08T07:20:37.571Z,29.3
2017-02-08T07:21:38.740Z,29.3
2017-02-08T07:22:37.798Z,29.3
2017-02-08T07:23:38.800Z,29.3
2017-02-08T07:24:38.888Z,29.3
2017-02-08T07:25:37.857Z,29.3
2017-02-08T07:26:37.953Z,29.3
2017-02-08T07:27:39.067Z,29.3
2017-02-08T07:28:38.106Z,29.3
2017-02-08T07:29:39.222Z,29.3
2017-02-08T07:30:38.177Z,29.2
2017-02-08T07:31:39.308Z,29.2
2017-02-08T07:32:39.391Z,29.2
2017-02-08T07:33:38.459Z,27.8
2017-02-08T07:34:39.509Z,26.7
2017-02-08T07:35:38.488Z,26
2017-02-08T07:36:39.577Z,25.7
2017-02-08T07:37:38.571Z,25.5
2017-02-08T07:38:39.636Z,25.6
2017-02-08T07:39:38.708Z,26.3
2017-02-08T07:40:38.743Z,26.6
2017-02-08T07:41:38.659Z,26.6
2017-02-08T07:42:38.830Z,27
2017-02-08T07:43:38.831Z,27
2017-02-08T07:44:39.941Z,27.2
2017-02-08T07:45:39.907Z,27.5
2017-02-08T07:46:38.898Z,27.7
2017-02-08T07:47:39.956Z,28.4
2017-02-08T07:48:40.082Z,28.6
2017-02-08T07:49:39.785Z,28.9
2017-02-08T07:50:39.068Z,29.1
2017-02-08T07:51:40.135Z,29.5
2017-02-08T07:52:39.072Z,29.9
2017-02-08T07:53:39.307Z,30.3
2017-02-08T07:54:40.374Z,30.8
2017-02-08T07:55:40.430Z,31.1
2017-02-08T07:56:40.498Z,31.3
2017-02-08T07:57:39.539Z,31.4
2017-02-08T07:58:39.624Z,31.4
2017-02-08T07:59:40.699Z,31.4
2017-02-08T08:00:40.819Z,31.4
2017-02-08T08:01:39.801Z,31.4
2017-02-08T08:02:39.893Z,31.3
2017-02-08T08:03:39.908Z,31.2
2017-02-08T08:04:40.015Z,31.2
2017-02-08T08:05:40.279Z,31.1
2017-02-08T08:06:41.154Z,31
2017-02-08T08:07:41.365Z,31
2017-02-08T08:08:40.197Z,30.9
2017-02-08T08:09:41.334Z,30.9
2017-02-08T08:10:40.352Z,30.8
2017-02-08T08:11:41.103Z,30.8
2017-02-08T08:12:40.380Z,30.7
2017-02-08T08:13:41.553Z,30.7
2017-02-08T08:14:40.512Z,30.4
2017-02-08T08:15:41.576Z,30.2
2017-02-08T08:16:41.686Z,30
2017-02-08T08:17:40.626Z,30
2017-02-08T08:18:40.687Z,29.8
2017-02-08T08:19:41.820Z,29.7
2017-02-08T08:20:42.002Z,29.6
2017-02-08T08:21:41.974Z,29.5
2017-02-08T08:22:42.034Z,29.4
2017-02-08T08:23:41.031Z,29.3
2017-02-08T08:24:42.250Z,29.2
2017-02-08T08:25:41.152Z,29.1
2017-02-08T08:26:42.338Z,29
2017-02-08T08:27:42.359Z,29
2017-02-08T08:28:42.393Z,28.9
2017-02-08T08:29:42.513Z,28.8
2017-02-08T08:30:42.442Z,28.8
2017-02-08T08:31:42.452Z,28.7
2017-02-08T08:32:41.491Z,28.7
2017-02-08T08:33:41.456Z,28.5
2017-02-08T08:34:42.615Z,28.5
2017-02-08T08:35:42.688Z,28.4
2017-02-08T08:36:41.706Z,28.4
2017-02-08T08:37:41.690Z,28.3
2017-02-08T08:38:42.815Z,28.2
2017-02-08T08:39:41.819Z,28.1
2017-02-08T08:40:43.390Z,28.1
2017-02-08T08:41:42.906Z,28
2017-02-08T08:42:42.917Z,28
2017-02-08T08:43:41.935Z,27.9
2017-02-08T08:44:42.999Z,27.9
2017-02-08T08:45:42.670Z,27.8
2017-02-08T08:46:43.132Z,27.8
2017-02-08T08:47:43.078Z,27.8
2017-02-08T08:48:42.133Z,27.8
2017-02-08T08:49:43.254Z,27.7
2017-02-08T08:50:42.889Z,27.7
2017-02-08T08:51:43.305Z,27.6
2017-02-08T08:52:42.494Z,27.5
2017-02-08T08:53:43.470Z,27.5
2017-02-08T08:54:42.418Z,27.4
2017-02-08T08:55:43.650Z,27.4
2017-02-08T08:56:42.534Z,27.4
2017-02-08T08:57:43.636Z,27.4
2017-02-08T08:58:42.665Z,27.3
2017-02-08T08:59:43.773Z,27.3
2017-02-08T09:00:43.781Z,27.3
2017-02-08T09:01:44.417Z,27.2
2017-02-08T09:02:43.844Z,27.2
2017-02-08T09:03:42.730Z,27.1
2017-02-08T09:04:42.913Z,27.1
2017-02-08T09:05:44.051Z,27.1
2017-02-08T09:06:42.934Z,27.1
2017-02-08T09:07:44.023Z,27.2
2017-02-08T09:08:43.025Z,27.1
2017-02-08T09:09:43.109Z,27.1
2017-02-08T09:10:44.039Z,27.1
2017-02-08T09:11:43.115Z,27.2
2017-02-08T09:12:44.239Z,27.3
2017-02-08T09:13:44.870Z,27.3
2017-02-08T09:14:44.396Z,27.3
2017-02-08T09:15:44.262Z,27.3
2017-02-08T09:16:43.364Z,27.3
2017-02-08T09:17:43.427Z,27.3
2017-02-08T09:18:44.476Z,27.2
2017-02-08T09:19:43.457Z,27.2
2017-02-08T09:20:43.469Z,27.2
2017-02-08T09:21:44.612Z,27.1
2017-02-08T09:22:43.660Z,27.1
2017-02-08T09:23:44.922Z,27
2017-02-08T09:24:44.890Z,27
2017-02-08T09:25:43.858Z,27
2017-02-08T09:26:43.850Z,27
2017-02-08T09:27:45.063Z,26.9
2017-02-08T09:28:44.042Z,26.9
2017-02-08T09:29:44.093Z,26.9
2017-02-08T09:30:44.244Z,26.9
2017-02-08T09:31:44.263Z,26.9
2017-02-08T09:32:44.998Z,26.8
2017-02-08T09:33:44.310Z,26.8
2017-02-08T09:34:44.454Z,26.8
2017-02-08T09:35:44.379Z,26.8
2017-02-08T09:36:45.523Z,26.8
2017-02-08T09:37:44.473Z,26.8
2017-02-08T09:38:45.516Z,26.8
2017-02-08T09:39:45.637Z,26.7
2017-02-08T09:40:44.583Z,26.6
2017-02-08T09:41:44.715Z,26.5
2017-02-08T09:42:45.939Z,26.4
2017-02-08T09:43:45.790Z,26.4
2017-02-08T09:44:45.941Z,26.4
2017-02-08T09:45:45.982Z,26.4
2017-02-08T09:46:44.821Z,26.4
2017-02-08T09:47:46.120Z,26.4
2017-02-08T09:48:45.111Z,26.4
2017-02-08T09:49:46.070Z,26.4
2017-02-08T09:50:45.024Z,26.5
2017-02-08T09:51:45.173Z,26.5
2017-02-08T09:52:46.307Z,26.5
2017-02-08T09:53:45.347Z,26.5
2017-02-08T09:54:45.408Z,26.5
2017-02-08T09:55:46.486Z,26.4
2017-02-08T09:56:46.653Z,26.5
2017-02-08T09:57:46.546Z,26.4
2017-02-08T09:58:45.471Z,26.4
2017-02-08T09:59:46.719Z,26.4
2017-02-08T10:00:45.711Z,26.4
2017-02-08T10:01:46.851Z,26.3
2017-02-08T10:02:45.758Z,26.3
2017-02-08T10:03:45.737Z,26.3
2017-02-08T10:04:45.921Z,26.3
2017-02-08T10:05:46.991Z,26.3
2017-02-08T10:06:47.097Z,26.3
2017-02-08T10:07:47.110Z,26.3
2017-02-08T10:08:45.999Z,26.3
2017-02-08T10:09:46.626Z,26.3
2017-02-08T10:10:47.175Z,26.3
2017-02-08T10:11:46.202Z,26.3
2017-02-08T10:12:47.296Z,26.4
2017-02-08T10:13:46.913Z,26.3
2017-02-08T10:14:47.973Z,26.3
2017-02-08T10:15:46.398Z,26.3
2017-02-08T10:16:47.505Z,26.2
2017-02-08T10:17:48.145Z,26.2
2017-02-08T10:18:48.058Z,26.2
2017-02-08T10:19:46.729Z,26.2
2017-02-08T10:20:47.707Z,26.2
2017-02-08T10:21:46.850Z,26.2
2017-02-08T10:22:46.750Z,26.2
2017-02-08T10:23:47.857Z,26.2
2017-02-08T10:24:46.814Z,26.2
2017-02-08T10:25:46.880Z,26.2
2017-02-08T10:26:47.363Z,26.2
2017-02-08T10:27:48.044Z,26.2
2017-02-08T10:28:48.030Z,26.3
2017-02-08T10:29:47.069Z,26.3
2017-02-08T10:30:48.235Z,26.3
2017-02-08T10:31:48.398Z,26.3
2017-02-08T10:32:48.616Z,26.3
2017-02-08T10:33:47.221Z,26.3
2017-02-08T10:34:47.365Z,26.3
2017-02-08T10:35:49.692Z,26.3
2017-02-08T10:36:47.993Z,26.3
2017-02-08T10:37:48.595Z,26.3
2017-02-08T10:38:48.827Z,26.3
2017-02-08T10:39:47.541Z,26.3
2017-02-08T10:40:48.671Z,26.3
2017-02-08T10:41:48.852Z,26.4
2017-02-08T10:42:47.850Z,26.4
2017-02-08T10:43:47.775Z,26.4
2017-02-08T10:44:49.272Z,26.4
2017-02-08T10:45:47.850Z,26.4
2017-02-08T10:46:49.041Z,26.5
2017-02-08T10:47:48.095Z,26.5
2017-02-08T10:48:48.189Z,26.5
2017-02-08T10:49:49.729Z,26.4
2017-02-08T10:50:48.486Z,26.4
2017-02-08T10:51:48.339Z,26.4
2017-02-08T10:52:49.426Z,26.4
2017-02-08T10:53:48.348Z,26.4
2017-02-08T10:54:48.228Z,26.5
2017-02-08T10:55:49.357Z,26.4
2017-02-08T10:56:49.668Z,26.4
2017-02-08T10:57:48.410Z,26.4
2017-02-08T10:58:48.535Z,26.4
2017-02-08T10:59:49.566Z,26.4
2017-02-08T11:00:50.011Z,26.5
2017-02-08T11:01:48.724Z,26.5
2017-02-08T11:02:50.771Z,26.6
2017-02-08T11:03:49.917Z,26.6
2017-02-08T11:04:49.908Z,26.7
2017-02-08T11:05:49.902Z,26.7
2017-02-08T11:06:48.921Z,26.7
2017-02-08T11:07:49.075Z,26.8
2017-02-08T11:08:49.347Z,26.7
2017-02-08T11:09:48.990Z,26.7
2017-02-08T11:10:50.204Z,26.8
2017-02-08T11:11:49.142Z,26.7
2017-02-08T11:12:50.306Z,26.7
2017-02-08T11:13:50.187Z,26.7
2017-02-08T11:14:50.584Z,26.6
2017-02-08T11:15:50.272Z,26.5
2017-02-08T11:16:49.404Z,26.5
2017-02-08T11:17:50.333Z,26.5
2017-02-08T11:18:50.962Z,26.5
2017-02-08T11:19:50.415Z,26.5
2017-02-08T11:20:49.679Z,26.5
2017-02-08T11:21:49.611Z,26.5
2017-02-08T11:22:49.751Z,26.6
2017-02-08T11:23:51.150Z,26.6
2017-02-08T11:24:49.439Z,26.6
2017-02-08T11:25:49.533Z,26.7
2017-02-08T11:26:49.915Z,26.7
2017-02-08T11:27:50.323Z,26.8
2017-02-08T11:28:50.711Z,26.8
2017-02-08T11:29:50.788Z,26.8
2017-02-08T11:30:49.810Z,26.8
2017-02-08T11:31:49.909Z,26.8
2017-02-08T11:32:51.152Z,26.9
2017-02-08T11:33:52.401Z,26.9
2017-02-08T11:34:51.807Z,26.9
2017-02-08T11:35:51.214Z,26.9
2017-02-08T11:36:51.880Z,26.9
2017-02-08T11:37:52.521Z,26.9
2017-02-08T11:38:50.456Z,27
2017-02-08T11:39:51.312Z,27
2017-02-08T11:40:50.442Z,27
2017-02-08T11:41:50.577Z,27.1
2017-02-08T11:42:51.599Z,27.1
2017-02-08T11:43:51.635Z,27.1
2017-02-08T11:44:50.807Z,27.1
2017-02-08T11:54:07.856Z,26.7
2017-02-08T12:00:53.343Z,26.9
2017-02-08T12:01:51.506Z,26.9
2017-02-08T12:02:52.659Z,27
2017-02-08T12:03:51.730Z,27
2017-02-08T12:04:52.356Z,27
2017-02-08T12:12:00.409Z,27
2017-02-08T12:20:54.063Z,27.1
2017-02-08T12:21:53.839Z,27.1
2017-02-08T12:22:53.644Z,27.1
2017-02-08T12:23:53.527Z,27.1
2017-02-08T12:24:53.756Z,27.1
2017-02-08T12:40:54.350Z,26.7
2017-02-08T12:41:53.425Z,26.7
2017-02-08T12:42:55.276Z,26.7
2017-02-08T12:43:53.428Z,26.7
2017-02-08T12:44:54.655Z,26.7
2017-02-08T12:53:08.412Z,26.7
2017-02-08T13:00:05.778Z,26.8
2017-02-08T13:00:54.370Z,26.8
2017-02-08T13:01:54.255Z,26.8
2017-02-08T13:02:56.618Z,26.8
2017-02-08T13:03:54.849Z,26.8
2017-02-08T13:04:55.876Z,26.8
2017-02-08T13:09:03.628Z,26.7
2017-02-08T13:12:05.921Z,26.7
2017-02-08T13:19:13.272Z,26.8
2017-02-08T13:20:55.966Z,26.7
2017-02-08T13:21:56.394Z,26.6
2017-02-08T13:22:56.583Z,26.6
2017-02-08T13:23:55.461Z,26.6
2017-02-08T13:24:56.560Z,26.6
2017-02-08T13:25:58.534Z,26.6
2017-02-08T13:26:55.595Z,26.5
2017-02-08T13:27:55.549Z,26.5
2017-02-08T13:28:56.832Z,26.5
2017-02-08T13:29:56.824Z,26.5
2017-02-08T13:30:56.807Z,26.5
2017-02-08T13:31:56.030Z,26.5
2017-02-08T13:33:57.006Z,26.5
2017-02-08T13:34:57.586Z,26.6
2017-02-08T13:35:56.210Z,26.6
2017-02-08T13:40:57.440Z,26.4
2017-02-08T13:41:56.278Z,26.4
2017-02-08T13:42:57.888Z,26.4
2017-02-08T13:43:59.093Z,26.3
2017-02-08T13:44:57.558Z,26.3
2017-02-08T13:51:10.301Z,26.2
2017-02-08T14:00:58.391Z,26.6
2017-02-08T14:01:57.567Z,26.6
2017-02-08T14:02:57.529Z,26.6
2017-02-08T14:03:57.526Z,26.7
2017-02-08T14:04:57.747Z,26.7
2017-02-08T14:20:58.470Z,26.8
2017-02-08T14:21:59.997Z,26.8
2017-02-08T14:22:59.529Z,26.8
2017-02-08T14:24:00.073Z,26.8
2017-02-08T14:24:58.436Z,26.8
2017-02-08T14:29:10.301Z,26.7
2017-02-08T14:34:10.749Z,26.7
2017-02-08T14:40:25.446Z,27
2017-02-08T14:41:51.902Z,27.4
2017-02-08T14:42:51.634Z,27.8
2017-02-08T14:43:50.691Z,28.2
2017-02-08T14:44:50.878Z,28.5
2017-02-08T15:00:53.305Z,29.7
2017-02-08T15:01:52.374Z,29.8
2017-02-08T15:02:52.715Z,29.8
2017-02-08T15:03:52.563Z,29.8
2017-02-08T15:04:51.439Z,29.8
2017-02-08T15:20:53.289Z,30.3
2017-02-08T15:21:52.327Z,30.3
2017-02-08T15:22:52.386Z,30.3
2017-02-08T15:23:53.365Z,30.3
2017-02-08T15:24:53.468Z,30.3
2017-02-08T15:38:06.992Z,30.5
2017-02-08T15:40:53.986Z,30.5
2017-02-08T15:41:54.094Z,30.6
2017-02-08T15:42:54.106Z,30.6
2017-02-08T15:43:53.147Z,30.6
2017-02-08T15:44:54.419Z,30.6
2017-02-08T15:45:54.298Z,30.6
2017-02-08T15:46:55.587Z,30.6
2017-02-08T15:47:53.337Z,30.7
2017-02-08T15:48:54.407Z,30.7
2017-02-08T15:49:54.531Z,30.7
2017-02-08T15:50:54.828Z,30.7
2017-02-08T15:51:53.455Z,30.7
2017-02-08T15:52:53.493Z,30.7
2017-02-08T15:53:53.685Z,30.6
2017-02-08T15:54:53.789Z,30.7
2017-02-08T15:55:55.416Z,30.7
2017-02-08T15:56:54.942Z,30.7
2017-02-08T15:57:56.993Z,30.7
2017-02-08T15:58:54.583Z,30.7
2017-02-08T15:59:54.671Z,30.7
2017-02-08T16:00:57.097Z,30.7
2017-02-08T16:01:54.290Z,30.8
2017-02-08T16:02:56.230Z,30.7
2017-02-08T16:03:55.500Z,30.8
2017-02-08T16:04:54.388Z,30.8
2017-02-08T16:05:55.556Z,30.8